• Join FlightAware (Why Join?)
  • Login
  • US Flag 
12:27PM EDT


 

Airport Tracker/Info


-or-


 

Live Flight TrackerFlight Track Log ✈ EGF4843 ✈ 22-May-2012 ✈ TFFF / FDF - TJSJ / SJU

Flight Track Log - Related Links

Times and Time Zones

All times are in EDT time to prevent confusion due to time zone crossing. See the EGF4843 flight status page for this flight to view local times or setup timezone preferences in your user account.

Time Position Orientation Groundspeed Altitude Reporting Facility
EDT Latitude Longitude Course Direction KTS MPH feet Rate Location/Type
09:22AM 14.6146 -61.0302 312° West  Level FlightAware Approximate
09:23AM 14.6588 -61.0810 312° West  Level FlightAware Approximate
09:24AM 14.7029 -61.1317 312° West  Level FlightAware Approximate
09:25AM 14.7384 -61.1892 312° West  Level FlightAware Approximate
09:26AM 14.7827 -61.2399 312° West  Level FlightAware Approximate
09:27AM 14.8270 -61.2906 312° West  Level FlightAware Approximate
09:28AM 14.8695 -61.3426 313° West  Level FlightAware Approximate
09:29AM 14.9138 -61.3933 313° West  Level FlightAware Approximate
09:30AM 14.9503 -61.4503 313° West  Level FlightAware Approximate
09:31AM 14.9947 -61.5009 313° West  Level FlightAware Approximate
09:32AM 15.0391 -61.5515 313° West  Level FlightAware Approximate
09:33AM 15.0835 -61.6022 313° West  Level FlightAware Approximate
09:34AM 15.1377 -61.6388 312° West  Level FlightAware Approximate
09:35AM 15.1818 -61.6898 312° West  Level FlightAware Approximate
09:36AM 15.2259 -61.7407 312° West  Level FlightAware Approximate
09:37AM 15.2700 -61.7917 312° West  Level FlightAware Approximate
09:38AM 15.3140 -61.8427 312° West  Level FlightAware Approximate
09:39AM 15.3581 -61.8937 312° West  Level FlightAware Approximate
09:40AM 15.3876 -61.9546 313° West  Level FlightAware Approximate
09:41AM 15.4319 -62.0055 313° West  Level FlightAware Approximate
09:42AM 15.4762 -62.0563 313° West  Level FlightAware Approximate
09:43AM 15.5204 -62.1072 313° West  Level FlightAware Approximate
09:44AM 15.5647 -62.1581 313° West  Level FlightAware Approximate
09:45AM 15.6154 -62.2013 313° West  Level FlightAware Approximate
09:46AM 15.6542 -62.2568 313° West  Level FlightAware Approximate
09:47AM 15.6928 -62.3124 314° West  Level FlightAware Approximate
09:48AM 15.7315 -62.3681 315° West  Level FlightAware Approximate
09:49AM 15.7702 -62.4237 316° Northwest  Level FlightAware Approximate
09:50AM 15.8088 -62.4794 318° Northwest  Level FlightAware Approximate
09:51AM 15.8463 -62.5334 320° Northwest  Level FlightAware Approximate
09:52AM 15.8838 -62.5875 323° Northwest  Level FlightAware Approximate
09:53AM 15.9212 -62.6415 327° Northwest  Level FlightAware Approximate
09:54AM 15.9587 -62.6956 334° Northwest  Level FlightAware Approximate
09:55AM 15.9961 -62.7498 347° North  Level FlightAware Approximate
09:56AM 16.0336 -62.8039 11° North  Level FlightAware Approximate
09:57AM 16.0710 -62.8581 49° Northeast  Level FlightAware Approximate
09:58AM 16.1084 -62.9122 79° East  Level FlightAware Approximate
09:59AM 16.1333 -62.7833 309° West 270 311 16,000  Level San Juan Center
10:02AM 16.3167 -63.0167 306° West 270 311 16,000  Level San Juan Center
10:07AM 16.5333 -63.3333 308° West 280 322 16,000  Level San Juan Center
10:08AM 16.5833 -63.4000 308° West 270 311 16,000  Level San Juan Center
10:09AM 16.6333 -63.4667 308° West 280 322 16,000  Level San Juan Center
10:10AM 16.6833 -63.5333 298° West 270 311 16,000  Level San Juan Center
10:11AM 16.7167 -63.6000 308° West 270 311 16,000  Level San Juan Center
10:12AM 16.7667 -63.6667 308° West 280 322 16,000  Level San Juan Center
10:13AM 16.8167 -63.7333 316° Northwest 280 322 16,000  Level San Juan Center
10:14AM 16.8667 -63.7833 308° West 280 322 16,000  Level San Juan Center
10:15AM 16.9167 -63.8500 298° West 270 311 16,000  Level San Juan Center
10:16AM 16.9500 -63.9167 316° Northwest 280 322 16,000  Level San Juan Center
10:17AM 17.0000 -63.9667 308° West 270 311 16,000  Level San Juan Center
10:18AM 17.0500 -64.0333 308° West 270 311 16,000  Level San Juan Center
10:19AM 17.1000 -64.1000 298° West 270 311 16,000  Level San Juan Center
10:20AM 17.1333 -64.1667 308° West 270 311 16,000  Level San Juan Center
10:21AM 17.1833 -64.2333 316° Northwest 270 311 16,000  Level San Juan Center
10:22AM 17.2333 -64.2833 298° West 270 311 16,000  Level San Juan Center
10:23AM 17.2667 -64.3500 308° West 270 311 16,000  Level San Juan Center
10:24AM 17.3167 -64.4167 308° West 270 311 16,100  Climbing San Juan Center
10:25AM 17.3667 -64.4833 316° Northwest 280 322 16,100  Level San Juan Center
10:26AM 17.4167 -64.5333 302° West 270 311 16,100  Level San Juan Center
10:27AM 17.4667 -64.6167 305° West 270 311 16,100  Level San Juan Center
10:28AM 17.5000 -64.6667 308° West 270 311 16,100  Level San Juan Center
10:29AM 17.5500 -64.7333 308° West 270 311 16,100  Level San Juan Center
10:30AM 17.6000 -64.8000 308° West 280 322 16,100  Level San Juan Center
10:31AM 17.6500 -64.8667 298° West 270 311 16,100  Level San Juan Center
10:32AM 17.6833 -64.9333 308° West 270 311 16,100  Level San Juan Center
10:33AM 17.7333 -65.0000 308° West 270 311 16,100  Level San Juan Center
10:34AM 17.7833 -65.0667 316° Northwest 280 322 16,100 -180 Level San Juan Center
10:35AM 17.8333 -65.1167 302° West 270 311 15,800 -780 Descending San Juan Center
10:36AM 17.8833 -65.2000 308° West 300 345 14,600 -1,200 Descending San Juan Center
10:37AM 17.9333 -65.2667 308° West 310 357 13,400 -1,200 Descending San Juan Center
10:38AM 17.9833 -65.3333 302° West 310 357 12,200 -1,200 Descending San Juan Center
10:39AM 18.0333 -65.4167 308° West 300 345 11,000 -600 Descending San Juan Center
10:40AM 18.0833 -65.4833 308° West 290 334 11,000  Level San Juan Center
10:41AM 18.1333 -65.5500 298° West 280 322 11,000  Level San Juan Center
10:42AM 18.1667 -65.6167 308° West 280 322 11,000  Level San Juan Center
10:43AM 18.2167 -65.6833 298° West 280 322 11,000 -480 Level San Juan Center
10:44AM 18.2500 -65.7500 305° West 270 311 10,100 -1,260 Descending San Juan Center
10:45AM 18.2833 -65.8000 308° West 230 265 8,500 -1,500 Descending San Juan Center
10:46AM 18.3333 -65.8667 285° West 250 288 7,100 -1,380 Descending San Juan Center
10:48AM 18.3500 -65.9333 270° West 210 242 5,800 -1,380 Descending San Juan Center
10:49AM 18.3500 -65.9833 270° West 200 230 4,400 -1,200 Descending San Juan Center
10:50AM 18.3500 -66.0333 285° West 200 230 3,500 -960 Descending San Juan Center
10:51AM 18.3667 -66.1000 317° Northwest 190 219 2,500 -540 Descending San Juan Center
10:52AM 18.4000 -66.1333 317° Northwest 190 219 2,500  Level San Juan Center